sensor_id;sensor_type;location;lat;lon;timestamp;temperature;humidity
18906;DHT22;9585;51.018;4.282;2023-04-24T00:01:43;8.60;99.90
18906;DHT22;9585;51.018;4.282;2023-04-24T00:04:16;8.70;99.90
18906;DHT22;9585;51.018;4.282;2023-04-24T00:06:57;8.70;99.90
18906;DHT22;9585;51.018;4.282;2023-04-24T00:09:26;8.80;99.90
18906;DHT22;9585;51.018;4.282;2023-04-24T00:11:54;8.80;99.90
18906;DHT22;9585;51.018;4.282;2023-04-24T00:14:22;8.70;99.90
18906;DHT22;9585;51.018;4.282;2023-04-24T00:16:51;8.70;99.90
18906;DHT22;9585;51.018;4.282;2023-04-24T00:19:19;8.70;99.90
18906;DHT22;9585;51.018;4.282;2023-04-24T00:21:48;8.70;99.90
18906;DHT22;9585;51.018;4.282;2023-04-24T00:24:16;8.80;99.90
18906;DHT22;9585;51.018;4.282;2023-04-24T00:26:44;8.80;99.90
18906;DHT22;9585;51.018;4.282;2023-04-24T00:29:15;8.70;99.90
18906;DHT22;9585;51.018;4.282;2023-04-24T00:31:49;8.70;99.90
18906;DHT22;9585;51.018;4.282;2023-04-24T00:34:20;8.80;99.90
18906;DHT22;9585;51.018;4.282;2023-04-24T00:36:48;8.70;99.90
18906;DHT22;9585;51.018;4.282;2023-04-24T00:39:25;8.70;99.90
18906;DHT22;9585;51.018;4.282;2023-04-24T00:41:57;8.70;99.90
18906;DHT22;9585;51.018;4.282;2023-04-24T00:44:40;8.70;99.90
18906;DHT22;9585;51.018;4.282;2023-04-24T00:47:24;8.70;99.90
18906;DHT22;9585;51.018;4.282;2023-04-24T00:49:55;8.70;99.90
18906;DHT22;9585;51.018;4.282;2023-04-24T00:52:22;8.60;99.90
18906;DHT22;9585;51.018;4.282;2023-04-24T00:55:00;8.60;99.90
18906;DHT22;9585;51.018;4.282;2023-04-24T00:57:28;8.70;99.90
18906;DHT22;9585;51.018;4.282;2023-04-24T00:59:58;8.60;99.90
18906;DHT22;9585;51.018;4.282;2023-04-24T01:02:32;8.60;99.90
18906;DHT22;9585;51.018;4.282;2023-04-24T01:05:05;8.70;99.90
18906;DHT22;9585;51.018;4.282;2023-04-24T01:07:34;8.70;99.90
18906;DHT22;9585;51.018;4.282;2023-04-24T01:10:02;8.80;99.90
18906;DHT22;9585;51.018;4.282;2023-04-24T01:12:30;8.70;99.90
18906;DHT22;9585;51.018;4.282;2023-04-24T01:15:00;8.70;99.90
18906;DHT22;9585;51.018;4.282;2023-04-24T01:17:29;8.70;99.90
18906;DHT22;9585;51.018;4.282;2023-04-24T01:19:57;8.70;99.90
18906;DHT22;9585;51.018;4.282;2023-04-24T01:22:36;8.60;99.90
18906;DHT22;9585;51.018;4.282;2023-04-24T01:25:10;8.60;99.90
18906;DHT22;9585;51.018;4.282;2023-04-24T01:27:47;8.60;99.90
18906;DHT22;9585;51.018;4.282;2023-04-24T01:30:22;8.60;99.90
18906;DHT22;9585;51.018;4.282;2023-04-24T01:32:50;8.50;99.90
18906;DHT22;9585;51.018;4.282;2023-04-24T01:35:18;8.50;99.90
18906;DHT22;9585;51.018;4.282;2023-04-24T01:37:47;8.50;99.90
18906;DHT22;9585;51.018;4.282;2023-04-24T01:40:15;8.60;99.90
18906;DHT22;9585;51.018;4.282;2023-04-24T01:42:43;8.60;99.90
18906;DHT22;9585;51.018;4.282;2023-04-24T01:45:14;8.50;99.90
18906;DHT22;9585;51.018;4.282;2023-04-24T01:47:44;8.50;99.90
18906;DHT22;9585;51.018;4.282;2023-04-24T01:50:12;8.50;99.90
18906;DHT22;9585;51.018;4.282;2023-04-24T01:52:44;8.50;99.90
18906;DHT22;9585;51.018;4.282;2023-04-24T01:55:15;8.50;99.90
18906;DHT22;9585;51.018;4.282;2023-04-24T01:57:49;8.50;99.90
18906;DHT22;9585;51.018;4.282;2023-04-24T02:00:19;8.40;99.90
18906;DHT22;9585;51.018;4.282;2023-04-24T02:02:46;8.30;99.90
18906;DHT22;9585;51.018;4.282;2023-04-24T02:05:14;8.20;99.90
18906;DHT22;9585;51.018;4.282;2023-04-24T02:07:41;8.20;99.90
18906;DHT22;9585;51.018;4.282;2023-04-24T02:10:10;8.10;99.90
18906;DHT22;9585;51.018;4.282;2023-04-24T02:12:46;8.20;99.90
18906;DHT22;9585;51.018;4.282;2023-04-24T02:15:15;8.00;99.90
18906;DHT22;9585;51.018;4.282;2023-04-24T02:17:46;8.00;99.90
18906;DHT22;9585;51.018;4.282;2023-04-24T02:20:14;7.90;99.90
18906;DHT22;9585;51.018;4.282;2023-04-24T02:22:43;7.80;99.90
18906;DHT22;9585;51.018;4.282;2023-04-24T02:25:13;7.80;99.90
18906;DHT22;9585;51.018;4.282;2023-04-24T02:27:43;7.70;99.90
18906;DHT22;9585;51.018;4.282;2023-04-24T02:30:14;7.70;99.90
18906;DHT22;9585;51.018;4.282;2023-04-24T02:32:42;7.80;99.90
18906;DHT22;9585;51.018;4.282;2023-04-24T02:35:11;7.70;99.90
18906;DHT22;9585;51.018;4.282;2023-04-24T02:37:42;7.70;99.90
18906;DHT22;9585;51.018;4.282;2023-04-24T02:40:10;7.80;99.90
18906;DHT22;9585;51.018;4.282;2023-04-24T02:42:40;7.80;99.90
18906;DHT22;9585;51.018;4.282;2023-04-24T02:45:20;7.80;99.90
18906;DHT22;9585;51.018;4.282;2023-04-24T02:47:48;7.80;99.90
18906;DHT22;9585;51.018;4.282;2023-04-24T02:50:17;7.90;99.90
18906;DHT22;9585;51.018;4.282;2023-04-24T02:52:44;7.80;99.90
18906;DHT22;9585;51.018;4.282;2023-04-24T02:55:13;7.80;99.90
18906;DHT22;9585;51.018;4.282;2023-04-24T02:57:43;7.80;99.90
18906;DHT22;9585;51.018;4.282;2023-04-24T03:00:14;7.80;99.90
18906;DHT22;9585;51.018;4.282;2023-04-24T03:02:53;7.80;99.90
18906;DHT22;9585;51.018;4.282;2023-04-24T03:05:22;7.90;99.90
18906;DHT22;9585;51.018;4.282;2023-04-24T03:07:50;7.80;99.90
18906;DHT22;9585;51.018;4.282;2023-04-24T03:10:21;7.80;99.90
18906;DHT22;9585;51.018;4.282;2023-04-24T03:12:50;7.80;99.90
18906;DHT22;9585;51.018;4.282;2023-04-24T03:15:37;7.80;99.90
18906;DHT22;9585;51.018;4.282;2023-04-24T03:18:12;7.90;99.90
18906;DHT22;9585;51.018;4.282;2023-04-24T03:20:39;7.90;99.90
18906;DHT22;9585;51.018;4.282;2023-04-24T03:23:10;7.80;99.90
18906;DHT22;9585;51.018;4.282;2023-04-24T03:25:41;7.80;99.90
18906;DHT22;9585;51.018;4.282;2023-04-24T03:28:12;7.80;99.90
18906;DHT22;9585;51.018;4.282;2023-04-24T03:30:41;7.80;99.90
18906;DHT22;9585;51.018;4.282;2023-04-24T03:33:12;7.80;99.90
18906;DHT22;9585;51.018;4.282;2023-04-24T03:35:45;7.80;99.90
18906;DHT22;9585;51.018;4.282;2023-04-24T03:38:21;7.80;99.90
18906;DHT22;9585;51.018;4.282;2023-04-24T03:40:59;7.80;99.90
18906;DHT22;9585;51.018;4.282;2023-04-24T03:43:30;7.90;99.90
18906;DHT22;9585;51.018;4.282;2023-04-24T03:46:01;7.80;99.90
18906;DHT22;9585;51.018;4.282;2023-04-24T03:48:29;7.90;99.90
18906;DHT22;9585;51.018;4.282;2023-04-24T03:50:59;7.90;99.90
18906;DHT22;9585;51.018;4.282;2023-04-24T03:53:34;7.90;99.90
18906;DHT22;9585;51.018;4.282;2023-04-24T03:56:15;7.90;99.90
18906;DHT22;9585;51.018;4.282;2023-04-24T03:58:44;7.80;99.90
18906;DHT22;9585;51.018;4.282;2023-04-24T04:01:25;7.80;99.90
18906;DHT22;9585;51.018;4.282;2023-04-24T04:03:54;7.80;99.90
18906;DHT22;9585;51.018;4.282;2023-04-24T04:06:27;7.70;99.90
18906;DHT22;9585;51.018;4.282;2023-04-24T04:09:09;7.70;99.90
18906;DHT22;9585;51.018;4.282;2023-04-24T04:11:46;7.80;99.90
18906;DHT22;9585;51.018;4.282;2023-04-24T04:14:14;7.70;99.90
18906;DHT22;9585;51.018;4.282;2023-04-24T04:16:44;7.70;99.90
18906;DHT22;9585;51.018;4.282;2023-04-24T04:19:18;7.80;99.90
18906;DHT22;9585;51.018;4.282;2023-04-24T04:21:47;7.70;99.90
18906;DHT22;9585;51.018;4.282;2023-04-24T04:24:29;7.70;99.90
18906;DHT22;9585;51.018;4.282;2023-04-24T04:27:10;7.60;99.90
18906;DHT22;9585;51.018;4.282;2023-04-24T04:29:42;7.70;99.90
18906;DHT22;9585;51.018;4.282;2023-04-24T04:32:18;7.70;99.90
18906;DHT22;9585;51.018;4.282;2023-04-24T04:34:46;7.80;99.90
18906;DHT22;9585;51.018;4.282;2023-04-24T04:37:15;7.60;99.90
18906;DHT22;9585;51.018;4.282;2023-04-24T04:39:43;7.60;99.90
18906;DHT22;9585;51.018;4.282;2023-04-24T04:42:14;7.60;99.90
18906;DHT22;9585;51.018;4.282;2023-04-24T04:44:47;7.60;99.90
18906;DHT22;9585;51.018;4.282;2023-04-24T04:47:21;7.60;99.90
18906;DHT22;9585;51.018;4.282;2023-04-24T04:50:09;7.50;99.90
18906;DHT22;9585;51.018;4.282;2023-04-24T04:52:55;7.60;99.90
18906;DHT22;9585;51.018;4.282;2023-04-24T04:55:22;7.50;99.90
18906;DHT22;9585;51.018;4.282;2023-04-24T04:57:51;7.50;99.90
18906;DHT22;9585;51.018;4.282;2023-04-24T05:00:20;7.60;99.90
18906;DHT22;9585;51.018;4.282;2023-04-24T05:02:52;7.50;99.90
18906;DHT22;9585;51.018;4.282;2023-04-24T05:05:20;7.40;99.90
18906;DHT22;9585;51.018;4.282;2023-04-24T05:07:48;7.30;99.90
18906;DHT22;9585;51.018;4.282;2023-04-24T05:10:26;7.30;99.90
18906;DHT22;9585;51.018;4.282;2023-04-24T05:12:57;7.30;99.90
18906;DHT22;9585;51.018;4.282;2023-04-24T05:15:25;7.30;99.90
18906;DHT22;9585;51.018;4.282;2023-04-24T05:17:55;7.30;99.90
18906;DHT22;9585;51.018;4.282;2023-04-24T05:20:31;7.30;99.90
18906;DHT22;9585;51.018;4.282;2023-04-24T05:23:01;7.30;99.90
18906;DHT22;9585;51.018;4.282;2023-04-24T05:25:29;7.30;99.90
18906;DHT22;9585;51.018;4.282;2023-04-24T05:28:01;7.30;99.90
18906;DHT22;9585;51.018;4.282;2023-04-24T05:30:29;7.30;99.90
18906;DHT22;9585;51.018;4.282;2023-04-24T05:33:01;7.40;99.90
18906;DHT22;9585;51.018;4.282;2023-04-24T05:35:35;7.40;99.90
18906;DHT22;9585;51.018;4.282;2023-04-24T05:38:27;7.30;99.90
18906;DHT22;9585;51.018;4.282;2023-04-24T05:41:02;7.30;99.90
18906;DHT22;9585;51.018;4.282;2023-04-24T05:43:36;7.30;99.90
18906;DHT22;9585;51.018;4.282;2023-04-24T05:46:05;7.30;99.90
18906;DHT22;9585;51.018;4.282;2023-04-24T05:48:51;7.30;99.90
18906;DHT22;9585;51.018;4.282;2023-04-24T05:51:52;7.30;99.90
18906;DHT22;9585;51.018;4.282;2023-04-24T05:54:23;7.30;99.90
18906;DHT22;9585;51.018;4.282;2023-04-24T05:57:16;7.30;99.90
18906;DHT22;9585;51.018;4.282;2023-04-24T05:59:45;7.30;99.90
18906;DHT22;9585;51.018;4.282;2023-04-24T06:02:20;7.30;99.90
18906;DHT22;9585;51.018;4.282;2023-04-24T06:04:49;7.30;99.90
18906;DHT22;9585;51.018;4.282;2023-04-24T06:07:17;7.30;99.90
18906;DHT22;9585;51.018;4.282;2023-04-24T06:09:47;7.30;99.90
18906;DHT22;9585;51.018;4.282;2023-04-24T06:12:18;7.30;99.90
18906;DHT22;9585;51.018;4.282;2023-04-24T06:14:45;7.30;99.90
18906;DHT22;9585;51.018;4.282;2023-04-24T06:17:24;7.40;99.90
18906;DHT22;9585;51.018;4.282;2023-04-24T06:20:00;7.50;99.90
18906;DHT22;9585;51.018;4.282;2023-04-24T06:22:29;7.50;99.90
18906;DHT22;9585;51.018;4.282;2023-04-24T06:24:57;7.50;99.90
18906;DHT22;9585;51.018;4.282;2023-04-24T06:27:27;7.50;99.90
18906;DHT22;9585;51.018;4.282;2023-04-24T06:30:07;7.50;99.90
18906;DHT22;9585;51.018;4.282;2023-04-24T06:32:39;7.50;99.90
18906;DHT22;9585;51.018;4.282;2023-04-24T06:35:11;7.60;99.90
18906;DHT22;9585;51.018;4.282;2023-04-24T06:37:52;7.60;99.90
18906;DHT22;9585;51.018;4.282;2023-04-24T06:40:22;7.60;99.90
18906;DHT22;9585;51.018;4.282;2023-04-24T06:42:50;7.60;99.90
18906;DHT22;9585;51.018;4.282;2023-04-24T06:45:19;7.60;99.90
18906;DHT22;9585;51.018;4.282;2023-04-24T06:47:55;7.60;99.90
18906;DHT22;9585;51.018;4.282;2023-04-24T06:50:33;7.60;99.90
18906;DHT22;9585;51.018;4.282;2023-04-24T06:53:12;7.60;99.90
18906;DHT22;9585;51.018;4.282;2023-04-24T06:55:46;7.60;99.90
18906;DHT22;9585;51.018;4.282;2023-04-24T06:58:13;7.60;99.90
18906;DHT22;9585;51.018;4.282;2023-04-24T07:00:41;7.50;99.90
18906;DHT22;9585;51.018;4.282;2023-04-24T07:03:22;7.60;99.90
18906;DHT22;9585;51.018;4.282;2023-04-24T07:05:51;7.60;99.90
18906;DHT22;9585;51.018;4.282;2023-04-24T07:08:19;7.70;99.90
18906;DHT22;9585;51.018;4.282;2023-04-24T07:10:52;7.70;99.90
18906;DHT22;9585;51.018;4.282;2023-04-24T07:13:26;7.80;99.90
18906;DHT22;9585;51.018;4.282;2023-04-24T07:15:59;7.80;99.90
18906;DHT22;9585;51.018;4.282;2023-04-24T07:18:27;7.80;99.90
18906;DHT22;9585;51.018;4.282;2023-04-24T07:20:56;8.00;99.90
18906;DHT22;9585;51.018;4.282;2023-04-24T07:23:39;8.10;99.90
18906;DHT22;9585;51.018;4.282;2023-04-24T07:26:20;8.20;99.90
18906;DHT22;9585;51.018;4.282;2023-04-24T07:28:48;8.20;99.90
18906;DHT22;9585;51.018;4.282;2023-04-24T07:31:24;8.40;99.90
18906;DHT22;9585;51.018;4.282;2023-04-24T07:34:08;8.50;99.90
18906;DHT22;9585;51.018;4.282;2023-04-24T07:36:37;8.70;99.90
18906;DHT22;9585;51.018;4.282;2023-04-24T07:39:05;8.80;99.90
18906;DHT22;9585;51.018;4.282;2023-04-24T07:41:32;8.90;99.90
18906;DHT22;9585;51.018;4.282;2023-04-24T07:44:00;8.90;99.90
18906;DHT22;9585;51.018;4.282;2023-04-24T07:46:27;8.90;99.90
18906;DHT22;9585;51.018;4.282;2023-04-24T07:48:55;8.90;99.90
18906;DHT22;9585;51.018;4.282;2023-04-24T07:51:24;9.00;99.90
18906;DHT22;9585;51.018;4.282;2023-04-24T07:54:00;9.00;99.90
18906;DHT22;9585;51.018;4.282;2023-04-24T07:56:29;9.20;99.90
18906;DHT22;9585;51.018;4.282;2023-04-24T07:58:57;9.30;99.90
18906;DHT22;9585;51.018;4.282;2023-04-24T08:01:24;9.10;99.90
18906;DHT22;9585;51.018;4.282;2023-04-24T08:03:51;9.00;99.90
18906;DHT22;9585;51.018;4.282;2023-04-24T08:06:19;8.90;99.90
18906;DHT22;9585;51.018;4.282;2023-04-24T08:08:46;9.00;99.90
18906;DHT22;9585;51.018;4.282;2023-04-24T08:11:15;9.50;99.90
18906;DHT22;9585;51.018;4.282;2023-04-24T08:13:46;10.20;99.90
18906;DHT22;9585;51.018;4.282;2023-04-24T08:16:26;11.20;99.90
18906;DHT22;9585;51.018;4.282;2023-04-24T08:18:58;11.60;99.90
18906;DHT22;9585;51.018;4.282;2023-04-24T08:21:26;11.70;99.90
18906;DHT22;9585;51.018;4.282;2023-04-24T08:23:53;11.70;99.90
18906;DHT22;9585;51.018;4.282;2023-04-24T08:26:27;12.00;99.90
18906;DHT22;9585;51.018;4.282;2023-04-24T08:28:54;12.10;99.90
18906;DHT22;9585;51.018;4.282;2023-04-24T08:31:22;11.80;99.90
18906;DHT22;9585;51.018;4.282;2023-04-24T08:33:50;11.20;99.90
18906;DHT22;9585;51.018;4.282;2023-04-24T08:36:18;10.60;99.90
18906;DHT22;9585;51.018;4.282;2023-04-24T08:38:45;10.20;99.90
18906;DHT22;9585;51.018;4.282;2023-04-24T08:41:14;9.90;99.90
18906;DHT22;9585;51.018;4.282;2023-04-24T08:43:46;9.70;99.90
18906;DHT22;9585;51.018;4.282;2023-04-24T08:46:15;9.70;99.90
18906;DHT22;9585;51.018;4.282;2023-04-24T08:48:43;9.60;99.90
18906;DHT22;9585;51.018;4.282;2023-04-24T08:51:11;9.60;99.90
18906;DHT22;9585;51.018;4.282;2023-04-24T08:53:39;9.70;99.90
18906;DHT22;9585;51.018;4.282;2023-04-24T08:56:06;10.10;99.90
18906;DHT22;9585;51.018;4.282;2023-04-24T08:58:35;10.90;99.90
18906;DHT22;9585;51.018;4.282;2023-04-24T09:01:04;11.60;99.90
18906;DHT22;9585;51.018;4.282;2023-04-24T09:03:33;12.10;99.90
18906;DHT22;9585;51.018;4.282;2023-04-24T09:06:01;12.20;99.90
18906;DHT22;9585;51.018;4.282;2023-04-24T09:08:29;12.20;99.90
18906;DHT22;9585;51.018;4.282;2023-04-24T09:10:57;12.30;99.90
18906;DHT22;9585;51.018;4.282;2023-04-24T09:13:28;12.40;99.90
18906;DHT22;9585;51.018;4.282;2023-04-24T09:15:58;11.90;99.90
18906;DHT22;9585;51.018;4.282;2023-04-24T09:18:27;11.50;99.90
18906;DHT22;9585;51.018;4.282;2023-04-24T09:20:59;11.30;99.90
18906;DHT22;9585;51.018;4.282;2023-04-24T09:23:27;11.20;99.90
18906;DHT22;9585;51.018;4.282;2023-04-24T09:25:57;11.20;99.90
18906;DHT22;9585;51.018;4.282;2023-04-24T09:28:26;10.90;99.90
18906;DHT22;9585;51.018;4.282;2023-04-24T09:31:05;10.90;99.90
18906;DHT22;9585;51.018;4.282;2023-04-24T09:33:34;10.90;99.90
18906;DHT22;9585;51.018;4.282;2023-04-24T09:36:02;11.10;99.90
18906;DHT22;9585;51.018;4.282;2023-04-24T09:38:34;11.30;99.90
18906;DHT22;9585;51.018;4.282;2023-04-24T09:41:02;11.30;99.90
18906;DHT22;9585;51.018;4.282;2023-04-24T09:43:30;11.00;99.90
18906;DHT22;9585;51.018;4.282;2023-04-24T09:45:59;10.60;99.90
18906;DHT22;9585;51.018;4.282;2023-04-24T09:48:33;10.30;99.90
18906;DHT22;9585;51.018;4.282;2023-04-24T09:51:01;10.20;99.90
18906;DHT22;9585;51.018;4.282;2023-04-24T09:53:29;10.30;99.90
18906;DHT22;9585;51.018;4.282;2023-04-24T09:56:02;10.40;99.90
18906;DHT22;9585;51.018;4.282;2023-04-24T09:58:30;10.40;99.90
18906;DHT22;9585;51.018;4.282;2023-04-24T10:00:58;10.20;99.90
18906;DHT22;9585;51.018;4.282;2023-04-24T10:03:26;10.30;99.90
18906;DHT22;9585;51.018;4.282;2023-04-24T10:06:00;10.40;99.90
18906;DHT22;9585;51.018;4.282;2023-04-24T10:08:33;10.20;99.90
18906;DHT22;9585;51.018;4.282;2023-04-24T10:11:00;10.00;99.90
18906;DHT22;9585;51.018;4.282;2023-04-24T10:13:28;10.00;99.90
18906;DHT22;9585;51.018;4.282;2023-04-24T10:15:56;10.10;99.90
18906;DHT22;9585;51.018;4.282;2023-04-24T10:18:26;10.50;99.90
18906;DHT22;9585;51.018;4.282;2023-04-24T10:20:56;10.70;99.90
18906;DHT22;9585;51.018;4.282;2023-04-24T10:23:26;10.70;99.90
18906;DHT22;9585;51.018;4.282;2023-04-24T10:25:54;10.80;99.90
18906;DHT22;9585;51.018;4.282;2023-04-24T10:28:21;10.70;99.90
18906;DHT22;9585;51.018;4.282;2023-04-24T10:30:49;10.60;99.90
18906;DHT22;9585;51.018;4.282;2023-04-24T10:33:23;10.60;99.90
18906;DHT22;9585;51.018;4.282;2023-04-24T10:35:52;10.90;99.90
18906;DHT22;9585;51.018;4.282;2023-04-24T10:38:24;11.20;99.90
18906;DHT22;9585;51.018;4.282;2023-04-24T10:40:57;11.40;99.90
18906;DHT22;9585;51.018;4.282;2023-04-24T10:43:35;11.40;99.90
18906;DHT22;9585;51.018;4.282;2023-04-24T10:46:04;11.40;99.90
18906;DHT22;9585;51.018;4.282;2023-04-24T10:48:36;11.70;99.90
18906;DHT22;9585;51.018;4.282;2023-04-24T10:51:11;12.00;99.90
18906;DHT22;9585;51.018;4.282;2023-04-24T10:53:41;12.00;99.90
18906;DHT22;9585;51.018;4.282;2023-04-24T10:56:12;11.90;99.90
18906;DHT22;9585;51.018;4.282;2023-04-24T10:58:40;11.90;99.90
18906;DHT22;9585;51.018;4.282;2023-04-24T11:01:24;11.90;99.90
18906;DHT22;9585;51.018;4.282;2023-04-24T11:03:55;11.80;99.90
18906;DHT22;9585;51.018;4.282;2023-04-24T11:06:29;11.50;99.90
18906;DHT22;9585;51.018;4.282;2023-04-24T11:09:02;11.40;99.90
18906;DHT22;9585;51.018;4.282;2023-04-24T11:11:33;11.20;99.90
18906;DHT22;9585;51.018;4.282;2023-04-24T11:14:06;11.10;99.90
18906;DHT22;9585;51.018;4.282;2023-04-24T11:16:42;11.20;99.90
18906;DHT22;9585;51.018;4.282;2023-04-24T11:19:18;11.30;99.90
18906;DHT22;9585;51.018;4.282;2023-04-24T11:21:54;11.60;99.90
18906;DHT22;9585;51.018;4.282;2023-04-24T11:24:26;11.90;99.90
18906;DHT22;9585;51.018;4.282;2023-04-24T11:26:57;12.40;99.90
18906;DHT22;9585;51.018;4.282;2023-04-24T11:29:42;12.50;99.90
18906;DHT22;9585;51.018;4.282;2023-04-24T11:32:23;12.70;99.90
18906;DHT22;9585;51.018;4.282;2023-04-24T11:34:53;12.50;99.90
18906;DHT22;9585;51.018;4.282;2023-04-24T11:37:22;12.50;99.90
18906;DHT22;9585;51.018;4.282;2023-04-24T11:39:53;12.30;99.90
18906;DHT22;9585;51.018;4.282;2023-04-24T11:42:23;12.20;99.90
18906;DHT22;9585;51.018;4.282;2023-04-24T11:44:53;12.10;99.90
18906;DHT22;9585;51.018;4.282;2023-04-24T11:47:28;12.00;99.90
18906;DHT22;9585;51.018;4.282;2023-04-24T11:50:00;12.00;99.90
18906;DHT22;9585;51.018;4.282;2023-04-24T11:52:29;12.10;99.90
18906;DHT22;9585;51.018;4.282;2023-04-24T11:54:57;12.10;99.90
18906;DHT22;9585;51.018;4.282;2023-04-24T11:57:26;12.00;99.90
18906;DHT22;9585;51.018;4.282;2023-04-24T11:59:59;12.00;99.90
18906;DHT22;9585;51.018;4.282;2023-04-24T12:02:27;12.10;99.90
18906;DHT22;9585;51.018;4.282;2023-04-24T12:04:56;12.20;99.90
18906;DHT22;9585;51.018;4.282;2023-04-24T12:07:23;12.40;99.90
18906;DHT22;9585;51.018;4.282;2023-04-24T12:09:56;12.30;99.90
18906;DHT22;9585;51.018;4.282;2023-04-24T12:12:29;12.10;99.90
18906;DHT22;9585;51.018;4.282;2023-04-24T12:14:59;12.00;99.90
18906;DHT22;9585;51.018;4.282;2023-04-24T12:17:28;12.10;99.90
18906;DHT22;9585;51.018;4.282;2023-04-24T12:19:59;12.10;99.90
18906;DHT22;9585;51.018;4.282;2023-04-24T12:22:28;12.00;99.90
18906;DHT22;9585;51.018;4.282;2023-04-24T12:24:59;12.00;99.90
18906;DHT22;9585;51.018;4.282;2023-04-24T12:27:32;11.90;99.90
18906;DHT22;9585;51.018;4.282;2023-04-24T12:30:15;11.90;99.90
18906;DHT22;9585;51.018;4.282;2023-04-24T12:32:46;11.80;99.90
18906;DHT22;9585;51.018;4.282;2023-04-24T12:35:18;11.90;99.90
18906;DHT22;9585;51.018;4.282;2023-04-24T12:37:46;12.20;99.90
18906;DHT22;9585;51.018;4.282;2023-04-24T12:40:14;12.40;99.90
18906;DHT22;9585;51.018;4.282;2023-04-24T12:42:48;12.40;99.90
18906;DHT22;9585;51.018;4.282;2023-04-24T12:45:16;12.40;99.90
18906;DHT22;9585;51.018;4.282;2023-04-24T12:47:45;12.40;99.90
18906;DHT22;9585;51.018;4.282;2023-04-24T12:50:13;12.50;99.90
18906;DHT22;9585;51.018;4.282;2023-04-24T12:52:41;12.70;99.90
18906;DHT22;9585;51.018;4.282;2023-04-24T12:55:10;12.70;99.90
18906;DHT22;9585;51.018;4.282;2023-04-24T12:57:39;12.50;99.90
18906;DHT22;9585;51.018;4.282;2023-04-24T13:00:09;12.60;99.90
18906;DHT22;9585;51.018;4.282;2023-04-24T13:02:36;12.70;99.90
18906;DHT22;9585;51.018;4.282;2023-04-24T13:05:05;12.70;99.90
18906;DHT22;9585;51.018;4.282;2023-04-24T13:07:33;12.90;99.90
18906;DHT22;9585;51.018;4.282;2023-04-24T13:10:00;12.90;99.90
18906;DHT22;9585;51.018;4.282;2023-04-24T13:12:28;13.00;99.90
18906;DHT22;9585;51.018;4.282;2023-04-24T13:14:57;13.10;99.90
18906;DHT22;9585;51.018;4.282;2023-04-24T13:17:26;12.80;99.90
18906;DHT22;9585;51.018;4.282;2023-04-24T13:19:55;12.70;99.90
18906;DHT22;9585;51.018;4.282;2023-04-24T13:22:22;12.70;99.90
18906;DHT22;9585;51.018;4.282;2023-04-24T13:24:50;12.70;99.90
18906;DHT22;9585;51.018;4.282;2023-04-24T13:27:18;12.70;99.90
18906;DHT22;9585;51.018;4.282;2023-04-24T13:29:45;12.70;99.90
18906;DHT22;9585;51.018;4.282;2023-04-24T13:32:13;12.80;99.90
18906;DHT22;9585;51.018;4.282;2023-04-24T13:34:42;12.90;99.90
18906;DHT22;9585;51.018;4.282;2023-04-24T13:37:10;12.80;99.90
18906;DHT22;9585;51.018;4.282;2023-04-24T13:39:37;13.00;99.90
18906;DHT22;9585;51.018;4.282;2023-04-24T13:42:05;12.90;99.90
18906;DHT22;9585;51.018;4.282;2023-04-24T13:44:32;13.00;99.90
18906;DHT22;9585;51.018;4.282;2023-04-24T13:46:59;13.10;99.90
18906;DHT22;9585;51.018;4.282;2023-04-24T13:49:27;13.10;99.90
18906;DHT22;9585;51.018;4.282;2023-04-24T13:51:56;12.90;99.90
18906;DHT22;9585;51.018;4.282;2023-04-24T13:54:23;13.00;99.90
18906;DHT22;9585;51.018;4.282;2023-04-24T13:56:51;12.80;99.90
18906;DHT22;9585;51.018;4.282;2023-04-24T13:59:19;12.80;99.90
18906;DHT22;9585;51.018;4.282;2023-04-24T14:01:47;12.80;99.90
18906;DHT22;9585;51.018;4.282;2023-04-24T14:04:16;12.80;99.90
18906;DHT22;9585;51.018;4.282;2023-04-24T14:06:43;12.80;99.90
18906;DHT22;9585;51.018;4.282;2023-04-24T14:09:12;12.90;99.90
18906;DHT22;9585;51.018;4.282;2023-04-24T14:11:44;12.90;99.90
18906;DHT22;9585;51.018;4.282;2023-04-24T14:14:11;12.90;99.90
18906;DHT22;9585;51.018;4.282;2023-04-24T14:16:38;12.80;99.90
18906;DHT22;9585;51.018;4.282;2023-04-24T14:19:06;12.60;99.90
18906;DHT22;9585;51.018;4.282;2023-04-24T14:21:33;12.50;99.90
18906;DHT22;9585;51.018;4.282;2023-04-24T14:24:08;12.40;99.90
18906;DHT22;9585;51.018;4.282;2023-04-24T14:26:39;12.50;99.90
18906;DHT22;9585;51.018;4.282;2023-04-24T14:29:06;12.60;99.90
18906;DHT22;9585;51.018;4.282;2023-04-24T14:31:34;12.80;99.90
18906;DHT22;9585;51.018;4.282;2023-04-24T14:34:01;13.10;99.90
18906;DHT22;9585;51.018;4.282;2023-04-24T14:36:29;13.10;99.90
18906;DHT22;9585;51.018;4.282;2023-04-24T14:38:57;13.10;99.90
18906;DHT22;9585;51.018;4.282;2023-04-24T14:41:24;13.10;99.90
18906;DHT22;9585;51.018;4.282;2023-04-24T14:43:53;13.00;99.90
18906;DHT22;9585;51.018;4.282;2023-04-24T14:46:20;12.80;99.90
18906;DHT22;9585;51.018;4.282;2023-04-24T14:48:48;12.70;99.90
18906;DHT22;9585;51.018;4.282;2023-04-24T14:51:15;12.70;99.90
18906;DHT22;9585;51.018;4.282;2023-04-24T14:53:43;12.60;99.90
18906;DHT22;9585;51.018;4.282;2023-04-24T14:56:12;12.60;99.90
18906;DHT22;9585;51.018;4.282;2023-04-24T14:58:39;12.50;99.90
18906;DHT22;9585;51.018;4.282;2023-04-24T15:01:08;12.30;99.90
18906;DHT22;9585;51.018;4.282;2023-04-24T15:03:36;12.20;99.90
18906;DHT22;9585;51.018;4.282;2023-04-24T15:06:03;12.10;99.90
18906;DHT22;9585;51.018;4.282;2023-04-24T15:08:31;11.90;99.90
18906;DHT22;9585;51.018;4.282;2023-04-24T15:10:58;11.90;99.90
18906;DHT22;9585;51.018;4.282;2023-04-24T15:13:25;12.00;99.90
18906;DHT22;9585;51.018;4.282;2023-04-24T15:15:53;12.00;99.90
18906;DHT22;9585;51.018;4.282;2023-04-24T15:18:22;12.00;99.90
18906;DHT22;9585;51.018;4.282;2023-04-24T15:20:49;11.90;99.90
18906;DHT22;9585;51.018;4.282;2023-04-24T15:23:16;11.90;99.90
18906;DHT22;9585;51.018;4.282;2023-04-24T15:25:44;11.90;99.90
18906;DHT22;9585;51.018;4.282;2023-04-24T15:28:11;11.90;99.90
18906;DHT22;9585;51.018;4.282;2023-04-24T15:30:39;11.90;99.90
18906;DHT22;9585;51.018;4.282;2023-04-24T15:33:06;11.90;99.90
18906;DHT22;9585;51.018;4.282;2023-04-24T15:35:35;11.90;99.90
18906;DHT22;9585;51.018;4.282;2023-04-24T15:38:02;11.80;99.90
18906;DHT22;9585;51.018;4.282;2023-04-24T15:40:30;11.70;99.90
18906;DHT22;9585;51.018;4.282;2023-04-24T15:42:57;11.70;99.90
18906;DHT22;9585;51.018;4.282;2023-04-24T15:45:25;11.80;99.90
18906;DHT22;9585;51.018;4.282;2023-04-24T15:47:52;11.70;99.90
18906;DHT22;9585;51.018;4.282;2023-04-24T15:50:23;11.70;99.90
18906;DHT22;9585;51.018;4.282;2023-04-24T15:52:52;11.70;99.90
18906;DHT22;9585;51.018;4.282;2023-04-24T15:55:19;11.70;99.90
18906;DHT22;9585;51.018;4.282;2023-04-24T15:57:47;11.70;99.90
18906;DHT22;9585;51.018;4.282;2023-04-24T16:00:15;11.60;99.90
18906;DHT22;9585;51.018;4.282;2023-04-24T16:02:43;11.60;99.90
18906;DHT22;9585;51.018;4.282;2023-04-24T16:05:17;11.60;99.90
18906;DHT22;9585;51.018;4.282;2023-04-24T16:07:49;11.60;99.90
18906;DHT22;9585;51.018;4.282;2023-04-24T16:10:18;11.60;99.90
18906;DHT22;9585;51.018;4.282;2023-04-24T16:12:45;11.50;99.90
18906;DHT22;9585;51.018;4.282;2023-04-24T16:15:13;11.40;99.90
18906;DHT22;9585;51.018;4.282;2023-04-24T16:17:47;11.40;99.90